Time;durP1;ratioP1;P1;durP2;ratioP2;P2;SDS_P1;SDS_P2;PMS_P1;PMS_P2;Temp;Humidity;BMP_temperature;BMP_pressure;BME280_temperature;BME280_humidity;BME280_pressure;Samples;Min_cycle;Max_cycle;Signal;HPM_P1;HPM_P2
2022/07/23 00:01:01;;;;;;;13.85;10.00;;;;;;;22.64;58.80;98615.70;1689712;84;25662;-64
2022/07/23 00:03:27;;;;;;;13.43;9.75;;;;;;;22.58;58.85;98616.70;1689623;84;25514;-63
2022/07/23 00:05:54;;;;;;;16.60;10.88;;;;;;;22.44;59.20;98613.25;1689465;84;26955;-63
2022/07/23 00:08:20;;;;;;;15.40;10.45;;;;;;;22.34;59.31;98627.41;1689406;84;25481;-64
2022/07/23 00:10:47;;;;;;;12.73;10.85;;;;;;;22.35;59.33;98628.98;1690022;84;27403;-60
2022/07/23 00:13:13;;;;;;;19.35;10.15;;;;;;;22.37;59.14;98628.59;1689715;84;25618;-64
2022/07/23 00:15:39;;;;;;;15.58;10.80;;;;;;;22.37;58.88;98625.22;1689854;84;25447;-64
2022/07/23 00:18:06;;;;;;;18.67;11.15;;;;;;;22.33;59.14;98624.39;1689632;84;26178;-63
2022/07/23 00:20:32;;;;;;;21.27;10.95;;;;;;;22.28;59.04;98623.39;1689679;84;25408;-64
2022/07/23 00:22:58;;;;;;;17.27;10.72;;;;;;;22.25;59.14;98633.34;1689890;84;27332;-63
2022/07/23 00:25:26;;;;;;;16.23;10.63;;;;;;;22.22;59.15;98624.97;1689689;84;25702;-64
2022/07/23 00:27:52;;;;;;;17.30;10.48;;;;;;;22.18;59.00;98622.97;1689765;84;25737;-64
2022/07/23 00:30:19;;;;;;;15.98;10.32;;;;;;;22.17;59.33;98619.95;1689705;84;25926;-64
2022/07/23 00:32:56;;;;;;;17.25;11.00;;;;;;;22.08;59.60;98629.31;1689420;84;25481;-63
2022/07/23 00:35:25;;;;;;;14.18;10.48;;;;;;;21.90;60.00;98626.42;1689151;84;28229;-61
2022/07/23 00:37:52;;;;;;;15.08;10.53;;;;;;;21.75;60.45;98639.48;1665405;86;25689;-64
2022/07/23 00:40:18;;;;;;;14.05;10.48;;;;;;;21.64;60.50;98634.65;1665467;86;25622;-64
2022/07/23 00:42:45;;;;;;;16.35;10.45;;;;;;;21.67;60.50;98637.24;1665541;86;26562;-63
2022/07/23 00:45:11;;;;;;;15.45;9.90;;;;;;;21.67;60.57;98640.03;1665155;86;25500;-63
2022/07/23 00:47:44;;;;;;;15.50;10.70;;;;;;;21.67;60.78;98633.06;1665435;86;27829;-64
2022/07/23 00:50:17;;;;;;;16.82;10.60;;;;;;;21.60;60.82;98630.23;1665506;86;25444;-63
2022/07/23 00:52:50;;;;;;;14.50;10.40;;;;;;;21.65;60.89;98632.67;1665580;86;25702;-63
2022/07/23 00:55:23;;;;;;;13.32;10.00;;;;;;;21.73;60.89;98633.51;1665220;86;26073;-64
2022/07/23 00:57:51;;;;;;;14.07;10.65;;;;;;;21.76;60.90;98629.97;1665262;86;25499;-63
2022/07/23 01:00:18;;;;;;;13.60;9.90;;;;;;;21.73;61.01;98630.11;1640815;86;27629;-64
2022/07/23 01:02:45;;;;;;;13.15;10.23;;;;;;;21.65;61.10;98625.70;1665095;86;25666;-64
2022/07/23 01:05:13;;;;;;;17.35;11.48;;;;;;;21.58;61.45;98626.45;1665512;86;25489;-64
2022/07/23 01:07:39;;;;;;;15.10;10.88;;;;;;;21.50;61.84;98634.58;1665402;86;25739;-64
2022/07/23 01:12:34;;;;;;;15.85;11.18;;;;;;;21.29;62.61;98638.80;1531690;93;26043;-60
2022/07/23 01:15:01;;;;;;;13.85;11.03;;;;;;;21.16;62.75;98636.94;1531513;93;25600;-64
2022/07/23 01:17:28;;;;;;;13.75;11.20;;;;;;;21.06;63.53;98641.22;1531852;93;25790;-63
2022/07/23 01:19:53;;;;;;;14.93;11.68;;;;;;;20.88;65.12;98630.72;1531994;93;25766;-63
2022/07/23 01:22:21;;;;;;;17.00;12.33;;;;;;;20.67;65.71;98627.92;1531971;93;25798;-64
2022/07/23 01:24:47;;;;;;;15.88;12.28;;;;;;;20.60;65.33;98616.73;1531899;93;27472;-64
2022/07/23 01:27:14;;;;;;;16.70;12.03;;;;;;;20.59;65.29;98621.28;1531814;93;25780;-62
2022/07/23 01:29:40;;;;;;;16.75;11.95;;;;;;;20.68;65.32;98621.19;1531610;93;25541;-64
2022/07/23 01:32:07;;;;;;;16.55;12.25;;;;;;;20.72;65.59;98626.78;1531924;93;26517;-63
2022/07/23 01:34:33;;;;;;;15.78;11.60;;;;;;;20.72;65.61;98624.60;1531934;93;25609;-63
2022/07/23 01:36:59;;;;;;;14.70;11.65;;;;;;;20.76;65.52;98628.21;1548030;91;27468;-63
2022/07/23 01:39:25;;;;;;;15.95;11.73;;;;;;;20.82;65.49;98621.11;1561072;91;25866;-62
2022/07/23 01:41:51;;;;;;;16.05;11.73;;;;;;;20.86;65.33;98623.33;1560951;91;25866;-63
2022/07/23 01:44:17;;;;;;;14.63;11.03;;;;;;;20.91;65.18;98624.41;1560943;91;25717;-64
2022/07/23 01:46:43;;;;;;;15.53;11.45;;;;;;;20.96;65.14;98616.28;1561113;91;25705;-63
2022/07/23 01:49:10;;;;;;;15.15;11.35;;;;;;;20.99;65.06;98614.70;1572353;86;27547;-63
2022/07/23 01:51:36;;;;;;;14.63;11.50;;;;;;;20.98;65.00;98615.91;1663748;86;25953;-64
2022/07/23 01:54:03;;;;;;;14.68;10.95;;;;;;;20.98;65.04;98618.08;1663745;86;25541;-63
2022/07/23 01:56:29;;;;;;;15.95;11.33;;;;;;;20.99;65.12;98630.03;1663672;86;25828;-63
2022/07/23 01:58:55;;;;;;;13.72;10.93;;;;;;;20.98;65.14;98620.08;1664096;86;25659;-64
2022/07/23 02:01:21;;;;;;;13.10;10.53;;;;;;;20.96;65.27;98627.43;1664025;86;27626;-64
2022/07/23 02:03:47;;;;;;;14.68;10.35;;;;;;;20.87;65.30;98627.70;1664013;85;25389;-63
2022/07/23 02:06:13;;;;;;;14.15;10.95;;;;;;;20.78;65.42;98620.28;1663966;86;25509;-63
2022/07/23 02:08:39;;;;;;;13.98;11.30;;;;;;;20.75;65.42;98628.80;1663547;86;25824;-62
2022/07/23 02:11:05;;;;;;;14.20;10.82;;;;;;;20.72;65.53;98626.78;1664148;85;25607;-63
2022/07/23 02:13:32;;;;;;;12.20;10.43;;;;;;;20.64;65.75;98627.30;1663576;86;27431;-64
2022/07/23 02:15:58;;;;;;;12.65;10.32;;;;;;;20.59;65.95;98621.28;1663879;86;25616;-63
2022/07/23 02:18:24;;;;;;;12.60;10.48;;;;;;;20.55;65.98;98625.41;1663633;86;25627;-62
2022/07/23 02:20:50;;;;;;;13.88;10.78;;;;;;;20.56;66.05;98626.42;1663885;86;25836;-63
2022/07/23 02:23:16;;;;;;;14.47;11.08;;;;;;;20.64;65.74;98623.73;1663689;86;25596;-63
2022/07/23 02:25:42;;;;;;;14.68;10.90;;;;;;;20.71;65.71;98627.16;1663960;86;28167;-64
2022/07/23 02:28:08;;;;;;;15.78;10.95;;;;;;;20.66;65.82;98626.33;1663804;86;25437;-64
2022/07/23 02:30:35;;;;;;;17.75;10.93;;;;;;;20.56;66.55;98619.47;1663926;86;25481;-64
2022/07/23 02:33:10;;;;;;;15.93;11.35;;;;;;;20.41;67.13;98614.97;1663717;86;25780;-64
2022/07/23 02:35:45;;;;;;;15.05;11.50;;;;;;;20.31;67.48;98612.27;1663077;86;25910;-63
2022/07/23 02:38:17;;;;;;;16.15;12.05;;;;;;;20.21;67.78;98614.34;1665024;84;26975;-63
2022/07/23 02:40:48;;;;;;;14.07;11.05;;;;;;;20.14;68.25;98607.52;1665085;86;26253;-64
2022/07/23 02:43:15;;;;;;;13.30;11.65;;;;;;;20.09;68.88;98606.45;1665369;86;25770;-63
2022/07/23 02:45:40;;;;;;;13.88;11.35;;;;;;;20.01;69.03;98595.02;1665246;86;25889;-63
2022/07/23 02:48:06;;;;;;;16.37;11.90;;;;;;;19.97;69.58;98597.75;1665114;86;25757;-64
2022/07/23 02:50:33;;;;;;;13.83;11.35;;;;;;;19.97;69.46;98603.92;1665105;86;27517;-63
2022/07/23 02:52:59;;;;;;;13.93;12.05;;;;;;;20.00;69.42;98605.33;1665332;86;25870;-63
2022/07/23 02:55:25;;;;;;;14.07;11.33;;;;;;;20.03;69.59;98596.27;1665336;86;25705;-63
2022/07/23 02:57:52;;;;;;;15.90;12.33;;;;;;;20.06;69.54;98599.67;1665389;86;25715;-63
2022/07/23 03:00:18;;;;;;;14.58;11.90;;;;;;;20.08;69.61;98595.70;1665133;86;25582;-63
2022/07/23 03:02:45;;;;;;;14.35;11.20;;;;;;;20.10;69.64;98601.12;1665338;86;28242;-63
2022/07/23 03:05:11;;;;;;;14.53;12.07;;;;;;;20.18;69.57;98600.00;1664922;86;25472;-63
2022/07/23 03:07:37;;;;;;;14.47;11.00;;;;;;;20.26;69.27;98602.27;1665439;86;25435;-63
2022/07/23 03:10:04;;;;;;;13.83;10.78;;;;;;;20.31;69.01;98606.70;1665487;86;25881;-63
2022/07/23 03:12:30;;;;;;;13.13;11.00;;;;;;;20.39;68.88;98609.78;1665361;86;25699;-63
2022/07/23 03:14:56;;;;;;;12.85;10.72;;;;;;;20.41;68.60;98608.78;1665416;86;27597;-63
2022/07/23 03:17:22;;;;;;;14.07;10.82;;;;;;;20.34;68.53;98600.38;1665337;86;25586;-62
2022/07/23 03:19:48;;;;;;;14.87;11.30;;;;;;;20.36;68.41;98603.58;1665128;86;25721;-63
2022/07/23 03:22:14;;;;;;;13.65;10.90;;;;;;;20.36;68.30;98604.97;1665323;86;25925;-63
2022/07/23 03:24:56;;;;;;;14.55;11.55;;;;;;;20.42;68.17;98599.27;1665366;86;25689;-63
2022/07/23 03:27:24;;;;;;;15.72;11.45;;;;;;;20.46;68.10;98598.52;1665412;86;27417;-64
2022/07/23 03:29:53;;;;;;;12.40;10.88;;;;;;;20.45;68.19;98599.09;1665315;86;25611;-63
2022/07/23 03:32:20;;;;;;;16.90;11.25;;;;;;;20.40;68.44;98601.63;1665305;86;25634;-63
2022/07/23 03:34:47;;;;;;;15.90;11.18;;;;;;;20.37;68.74;98608.54;1665351;86;25750;-63
2022/07/23 03:37:13;;;;;;;12.88;11.22;;;;;;;20.37;68.72;98605.17;1665273;84;25663;-64
2022/07/23 03:39:39;;;;;;;14.47;11.73;;;;;;;20.42;68.45;98609.02;1665540;86;27448;-63
2022/07/23 03:42:06;;;;;;;13.60;10.35;;;;;;;20.48;68.32;98604.48;1665292;86;25809;-64
2022/07/23 03:44:32;;;;;;;16.35;11.63;;;;;;;20.61;68.21;98614.75;1665042;86;25650;-64
2022/07/23 03:46:59;;;;;;;12.80;10.70;;;;;;;20.68;67.81;98614.23;1665062;86;25893;-63
2022/07/23 03:49:25;;;;;;;14.15;11.12;;;;;;;20.74;67.88;98606.32;1665082;86;25669;-64
2022/07/23 03:51:51;;;;;;;13.68;11.03;;;;;;;20.79;67.89;98599.59;1665399;86;27540;-64
2022/07/23 03:54:17;;;;;;;14.28;11.05;;;;;;;20.92;67.88;98608.47;1665098;86;26173;-65
2022/07/23 03:56:43;;;;;;;16.07;11.93;;;;;;;21.08;68.00;98599.86;1665323;86;25440;-62
2022/07/23 03:59:10;;;;;;;16.30;11.40;;;;;;;21.22;67.59;98605.32;1665308;86;25722;-63
2022/07/23 04:01:37;;;;;;;14.85;11.10;;;;;;;21.25;67.70;98601.77;1665382;86;25650;-63
2022/07/23 04:04:03;;;;;;;19.20;11.10;;;;;;;21.26;67.69;98602.77;1665117;86;28511;-64
2022/07/23 04:06:30;;;;;;;12.75;10.55;;;;;;;21.39;68.49;98601.06;1665336;86;25713;-65
2022/07/23 04:08:56;;;;;;;16.62;11.25;;;;;;;21.44;67.34;98602.88;1665272;86;25654;-63
2022/07/23 04:11:22;;;;;;;15.65;11.30;;;;;;;21.51;67.30;98597.95;1665032;86;25721;-64
2022/07/23 04:13:48;;;;;;;18.67;11.15;;;;;;;21.51;67.23;98596.55;1665347;86;25504;-64
2022/07/23 04:16:14;;;;;;;15.55;10.95;;;;;;;21.59;66.71;98599.37;1665533;86;27430;-62
2022/07/23 04:18:40;;;;;;;18.12;11.20;;;;;;;21.72;66.56;98606.80;1665094;86;25666;-64
2022/07/23 04:21:07;;;;;;;17.25;11.20;;;;;;;21.74;66.36;98601.05;1665415;86;25790;-64
2022/07/23 04:23:33;;;;;;;16.70;11.35;;;;;;;21.85;66.13;98602.53;1665299;86;25716;-64
2022/07/23 04:25:59;;;;;;;14.28;11.33;;;;;;;21.84;65.99;98598.12;1665056;86;25741;-64
2022/07/23 04:28:25;;;;;;;15.83;11.45;;;;;;;21.93;65.84;98602.73;1665486;86;27614;-62
2022/07/23 04:30:51;;;;;;;20.00;11.40;;;;;;;22.07;65.42;98606.77;1665550;86;25669;-65
2022/07/23 04:33:17;;;;;;;18.35;11.00;;;;;;;22.15;64.97;98607.59;1665548;86;25436;-64
2022/07/23 04:35:44;;;;;;;19.10;10.58;;;;;;;22.17;65.41;98602.43;1665408;86;25615;-64
2022/07/23 04:38:10;;;;;;;18.45;10.82;;;;;;;22.23;65.02;98590.27;1665144;84;25603;-63
2022/07/23 04:40:36;;;;;;;16.87;11.60;;;;;;;22.29;64.77;98593.69;1660030;86;27454;-64
2022/07/23 04:43:01;;;;;;;16.97;10.80;;;;;;;22.34;65.06;98590.30;1650021;86;25512;-63
2022/07/23 04:45:27;;;;;;;14.65;10.40;;;;;;;22.43;64.82;98596.30;1654347;86;25448;-62
2022/07/23 04:47:54;;;;;;;15.80;10.20;;;;;;;22.55;64.33;98597.33;1645439;86;25792;-61
2022/07/23 04:50:21;;;;;;;15.30;10.58;;;;;;;22.65;63.54;98599.16;1646529;86;25437;-64
2022/07/23 04:52:48;;;;;;;13.95;9.68;;;;;;;22.76;63.14;98599.95;1648721;86;28507;-64
2022/07/23 04:55:15;;;;;;;15.78;10.48;;;;;;;22.85;63.14;98595.36;1643470;86;27216;-64
2022/07/23 04:57:41;;;;;;;14.33;9.95;;;;;;;22.89;62.51;98589.78;1647485;86;25716;-65
2022/07/23 05:00:10;;;;;;;13.00;10.28;;;;;;;22.98;62.92;98590.19;1657224;86;25976;-64
2022/07/23 05:02:36;;;;;;;15.58;10.15;;;;;;;23.04;61.71;98594.77;1665042;86;25562;-65
2022/07/23 05:05:02;;;;;;;13.78;10.13;;;;;;;23.08;61.86;98599.74;1665493;86;28220;-65
2022/07/23 05:07:28;;;;;;;15.03;10.53;;;;;;;23.16;61.62;98601.93;1665444;86;25479;-65
2022/07/23 05:09:54;;;;;;;13.62;10.30;;;;;;;23.33;61.51;98598.92;1665424;86;25697;-64
2022/07/23 05:12:20;;;;;;;12.60;10.60;;;;;;;23.50;61.76;98602.91;1665109;86;25789;-64
2022/07/23 05:14:46;;;;;;;14.23;10.68;;;;;;;23.68;62.56;98600.05;1665727;86;25735;-64
2022/07/23 05:17:13;;;;;;;15.15;10.28;;;;;;;23.81;61.71;98603.19;1665283;86;28049;-65
2022/07/23 05:19:39;;;;;;;15.20;9.75;;;;;;;23.97;61.59;98604.73;1665605;86;25650;-65
2022/07/23 05:22:05;;;;;;;14.35;9.93;;;;;;;24.20;60.35;98599.88;1665149;86;25593;-64
2022/07/23 05:24:32;;;;;;;15.00;9.75;;;;;;;24.17;59.60;98597.27;1665522;86;26178;-64
2022/07/23 05:26:58;;;;;;;13.38;9.73;;;;;;;24.27;60.61;98596.41;1665392;86;25415;-65
2022/07/23 05:29:24;;;;;;;10.68;9.55;;;;;;;24.36;60.59;98588.97;1665101;86;27468;-63
2022/07/23 05:31:51;;;;;;;10.32;8.85;;;;;;;24.45;59.22;98584.31;1665256;86;25672;-64
2022/07/23 05:34:18;;;;;;;15.75;9.50;;;;;;;24.62;59.29;98590.19;1665360;86;25578;-65
2022/07/23 05:36:45;;;;;;;13.53;9.78;;;;;;;24.79;58.11;98583.67;1661720;86;25963;-65
2022/07/23 05:39:11;;;;;;;13.72;9.70;;;;;;;24.80;57.24;98577.44;1665186;84;25440;-63
2022/07/23 05:41:38;;;;;;;15.63;10.58;;;;;;;24.83;56.28;98579.41;1665281;86;27605;-64
2022/07/23 05:44:04;;;;;;;13.93;10.20;;;;;;;24.76;56.32;98572.47;1665045;86;25502;-65
2022/07/23 05:46:31;;;;;;;14.07;11.63;;;;;;;24.80;57.70;98571.23;1665381;86;25585;-64
2022/07/23 05:48:58;;;;;;;14.20;10.55;;;;;;;24.96;56.90;98566.33;1665077;86;25784;-65
2022/07/23 05:51:25;;;;;;;18.30;11.05;;;;;;;25.07;56.50;98558.59;1665263;86;25471;-64
2022/07/23 05:53:53;;;;;;;15.60;11.08;;;;;;;25.09;55.34;98551.98;1665453;86;27454;-64
2022/07/23 05:56:20;;;;;;;15.68;11.55;;;;;;;25.13;55.58;98541.52;1665255;86;25601;-65
2022/07/23 05:58:47;;;;;;;14.75;11.63;;;;;;;25.25;55.66;98538.01;1665330;86;25430;-65
2022/07/23 06:01:14;;;;;;;15.60;11.57;;;;;;;25.42;54.88;98537.00;1665265;86;25957;-65
2022/07/23 06:03:40;;;;;;;15.50;11.88;;;;;;;25.55;54.73;98540.06;1665366;86;25434;-65
2022/07/23 06:06:07;;;;;;;18.98;12.80;;;;;;;25.55;54.71;98531.66;1665212;86;27647;-65
2022/07/23 06:08:34;;;;;;;17.40;13.50;;;;;;;25.65;54.10;98534.77;1665167;86;25684;-58
2022/07/23 06:11:01;;;;;;;17.07;13.03;;;;;;;25.54;54.02;98537.68;1665185;86;25602;-65
2022/07/23 06:13:28;;;;;;;15.70;13.13;;;;;;;25.54;54.16;98538.48;1665288;86;25904;-62
2022/07/23 06:15:54;;;;;;;17.90;13.75;;;;;;;25.59;53.79;98540.03;1665368;86;25488;-66
2022/07/23 06:18:21;;;;;;;17.98;13.80;;;;;;;25.72;53.75;98536.68;1665333;86;27635;-64
2022/07/23 06:20:47;;;;;;;15.95;13.35;;;;;;;25.87;53.37;98538.69;1664961;86;25670;-64
2022/07/23 06:23:14;;;;;;;16.00;14.15;;;;;;;26.04;53.54;98528.44;1665451;86;25783;-65
2022/07/23 06:25:40;;;;;;;18.23;14.15;;;;;;;26.22;52.15;98532.38;1665257;86;25961;-65
2022/07/23 06:28:07;;;;;;;16.82;14.38;;;;;;;26.26;52.49;98536.55;1665434;86;25719;-64
2022/07/23 06:30:33;;;;;;;16.60;14.05;;;;;;;26.44;50.87;98547.53;1665144;86;27435;-64
2022/07/23 06:33:00;;;;;;;17.15;14.90;;;;;;;26.49;51.25;98545.66;1663908;86;25771;-66
2022/07/23 06:35:27;;;;;;;21.73;14.98;;;;;;;26.50;51.06;98540.82;1665263;86;25711;-65
2022/07/23 06:37:54;;;;;;;16.45;14.63;;;;;;;26.62;50.75;98537.41;1670666;84;25903;-64
2022/07/23 06:40:21;;;;;;;17.57;14.43;;;;;;;26.72;50.34;98532.84;1689596;84;25731;-66
2022/07/23 06:42:48;;;;;;;17.70;14.80;;;;;;;26.85;50.18;98537.86;1689446;84;27431;-65
2022/07/23 06:45:15;;;;;;;16.40;13.75;;;;;;;27.05;50.91;98534.49;1689667;84;26030;-66
2022/07/23 06:47:42;;;;;;;18.05;14.23;;;;;;;27.44;49.98;98536.98;1689413;84;25734;-65
2022/07/23 06:50:09;;;;;;;18.00;14.00;;;;;;;27.58;48.94;98526.66;1689379;84;25805;-64
2022/07/23 06:52:37;;;;;;;18.77;14.40;;;;;;;27.78;49.01;98525.27;1689368;84;25592;-65
2022/07/23 06:55:05;;;;;;;16.20;12.73;;;;;;;27.87;48.44;98529.70;1689425;84;27431;-66
2022/07/23 06:57:32;;;;;;;14.78;13.18;;;;;;;28.02;47.55;98536.41;1689600;84;25665;-64
2022/07/23 06:59:59;;;;;;;15.68;12.33;;;;;;;28.09;48.43;98536.23;1689274;84;25786;-65
2022/07/23 07:02:25;;;;;;;15.75;12.58;;;;;;;28.33;47.56;98524.06;1689496;84;25729;-64
2022/07/23 07:04:53;;;;;;;15.00;12.88;;;;;;;28.48;46.59;98525.31;1689450;84;25399;-65
2022/07/23 07:07:19;;;;;;;17.32;13.43;;;;;;;28.64;46.64;98527.32;1689618;84;27659;-65
2022/07/23 07:09:46;;;;;;;15.23;12.75;;;;;;;28.83;45.04;98529.07;1689418;84;25580;-63
2022/07/23 07:12:12;;;;;;;18.17;12.60;;;;;;;29.05;45.20;98533.58;1689441;84;25748;-65
2022/07/23 07:14:39;;;;;;;17.48;12.47;;;;;;;29.15;45.47;98533.09;1689243;84;25892;-66
2022/07/23 07:17:06;;;;;;;17.98;13.22;;;;;;;29.28;44.88;98535.18;1689898;84;25639;-64
2022/07/23 07:19:32;;;;;;;18.95;13.58;;;;;;;29.65;44.66;98544.87;1689540;84;27376;-66
2022/07/23 07:21:59;;;;;;;16.45;13.05;;;;;;;29.94;43.01;98548.25;1689404;84;25459;-66
2022/07/23 07:24:26;;;;;;;15.88;12.35;;;;;;;30.17;43.04;98542.14;1689506;84;25680;-64
2022/07/23 07:26:52;;;;;;;15.70;12.13;;;;;;;30.47;42.15;98540.58;1689313;84;25918;-66
2022/07/23 07:29:19;;;;;;;17.23;11.93;;;;;;;30.66;41.36;98542.39;1689462;84;25595;-66
2022/07/23 07:31:46;;;;;;;15.08;11.63;;;;;;;30.86;42.23;98538.52;1689277;84;27423;-65
2022/07/23 07:34:13;;;;;;;17.42;11.85;;;;;;;31.06;41.44;98540.27;1689339;84;25651;-65
2022/07/23 07:36:40;;;;;;;15.50;12.13;;;;;;;31.28;40.63;98541.70;1689447;84;25673;-65
2022/07/23 07:39:09;;;;;;;17.75;11.90;;;;;;;31.48;40.85;98544.05;1689403;84;25992;-65
2022/07/23 07:41:35;;;;;;;15.83;12.00;;;;;;;31.63;39.64;98547.17;1689537;83;25718;-66
2022/07/23 07:44:02;;;;;;;17.75;12.20;;;;;;;31.65;38.60;98541.81;1689551;84;27466;-65
2022/07/23 07:46:30;;;;;;;18.25;11.48;;;;;;;31.68;39.67;98549.39;1689205;84;25695;-64
2022/07/23 07:48:57;;;;;;;18.27;10.95;;;;;;;32.05;40.05;98536.88;1689304;84;25430;-65
2022/07/23 07:51:24;;;;;;;13.50;9.68;;;;;;;32.26;39.54;98533.67;1689482;84;25683;-65
2022/07/23 07:53:50;;;;;;;12.88;9.03;;;;;;;32.57;38.18;98532.83;1689472;84;25542;-64
2022/07/23 07:56:17;;;;;;;11.03;8.83;;;;;;;32.76;38.67;98535.70;1689485;84;27659;-63
2022/07/23 07:58:44;;;;;;;12.80;8.95;;;;;;;32.91;37.26;98525.94;1689429;85;25553;-63
2022/07/23 08:01:11;;;;;;;12.75;9.63;;;;;;;33.17;37.70;98517.94;1689511;84;25434;-62
2022/07/23 08:03:37;;;;;;;11.10;8.48;;;;;;;33.50;37.59;98514.28;1689524;84;25907;-63
2022/07/23 08:06:05;;;;;;;14.58;8.55;;;;;;;33.78;36.89;98507.12;1689634;84;25413;-63
2022/07/23 08:08:32;;;;;;;16.73;10.15;;;;;;;33.89;37.13;98496.67;1689785;84;27425;-63
2022/07/23 08:10:59;;;;;;;11.93;8.93;;;;;;;34.08;36.04;98495.98;1689435;84;25462;-63
2022/07/23 08:13:26;;;;;;;9.28;8.10;;;;;;;34.11;35.67;98487.91;1689617;84;25591;-61
2022/07/23 08:15:55;;;;;;;13.50;8.30;;;;;;;34.26;35.60;98495.12;1689613;84;25647;-63
2022/07/23 08:18:22;;;;;;;;;;;;;;;34.49;35.18;98491.35;1692140;84;25652;-63
2022/07/23 08:20:48;;;;;;;10.80;7.95;;;;;;;34.75;34.70;98489.47;1689682;84;27498;-63
2022/07/23 08:23:18;;;;;;;12.07;7.58;;;;;;;34.94;34.20;98487.11;1689800;84;25620;-61
2022/07/23 08:25:44;;;;;;;9.43;7.60;;;;;;;34.82;34.18;98492.56;1689401;84;25691;-60
2022/07/23 08:28:13;;;;;;;10.13;7.65;;;;;;;34.78;33.78;98495.61;1678957;84;25753;-61
2022/07/23 08:30:41;;;;;;;;;;;;;;;35.00;34.10;98500.81;1657578;84;25679;-62
2022/07/23 08:33:12;;;;;;;8.95;7.08;;;;;;;35.31;33.49;98497.41;1647900;86;27599;-57
2022/07/23 08:35:46;;;;;;;7.10;6.50;;;;;;;35.25;32.94;98506.63;1651110;86;25859;-58
2022/07/23 08:38:17;;;;;;;9.20;6.80;;;;;;;35.04;32.06;98499.98;1649215;86;25433;-63
2022/07/23 08:40:48;;;;;;;7.60;6.65;;;;;;;35.13;32.48;98504.17;1630198;88;25715;-59
2022/07/23 08:43:18;;;;;;;9.00;6.87;;;;;;;35.27;32.97;98510.41;1630388;87;25683;-62
2022/07/23 08:45:48;;;;;;;11.20;6.33;;;;;;;35.18;32.46;98506.98;1630382;87;28057;-60
2022/07/23 08:48:21;;;;;;;7.47;6.53;;;;;;;35.38;32.18;98505.56;1630212;88;25915;-61
2022/07/23 08:50:51;;;;;;;7.62;6.58;;;;;;;35.48;31.77;98500.54;1629661;88;25756;-64
2022/07/23 08:53:19;;;;;;;;;;;;;;;35.71;31.22;98501.75;1632608;88;25801;-62
2022/07/23 08:55:48;;;;;;;6.78;6.03;;;;;;;36.05;31.67;98508.64;1630337;88;25621;-63
2022/07/23 08:58:15;;;;;;;;;;;;;;;36.58;30.99;98504.61;1632724;88;27347;-63
2022/07/23 09:00:43;;;;;;;6.60;6.00;;;;;;;36.82;30.11;98507.14;1630502;88;25816;-59
2022/07/23 09:03:19;;;;;;;7.83;6.10;;;;;;;37.16;29.38;98506.12;1629935;88;25442;-56
2022/07/23 09:05:46;;;;;;;9.30;5.87;;;;;;;37.55;29.06;98506.38;1629949;88;25763;-57
2022/07/23 09:08:18;;;;;;;7.30;5.85;;;;;;;37.37;28.03;98501.80;1630173;87;25628;-58
2022/07/23 09:10:55;;;;;;;6.80;5.95;;;;;;;37.53;28.65;98504.03;1630062;87;27485;-58
2022/07/23 09:13:40;;;;;;;7.00;6.12;;;;;;;37.97;28.29;98500.52;1630010;88;27206;-56
2022/07/23 09:16:14;;;;;;;6.90;5.35;;;;;;;38.43;29.46;98500.83;1630171;87;25475;-56
2022/07/23 09:18:45;;;;;;;6.08;5.47;;;;;;;38.81;27.00;98502.98;1630373;88;26336;-63
2022/07/23 09:21:33;;;;;;;6.65;5.85;;;;;;;38.74;27.47;98501.39;1628808;88;25639;-57
2022/07/23 09:24:09;;;;;;;6.55;5.60;;;;;;;38.94;26.83;98501.06;1630180;87;27620;-56
2022/07/23 09:26:49;;;;;;;6.20;5.60;;;;;;;39.06;26.19;98509.06;1642180;86;25687;-56
2022/07/23 09:29:22;;;;;;;6.00;5.40;;;;;;;39.13;26.54;98489.97;1641577;86;25656;-56
2022/07/23 09:31:57;;;;;;;5.17;4.67;;;;;;;39.08;26.50;98494.99;1665302;86;25701;-56
2022/07/23 09:34:33;;;;;;;5.15;4.65;;;;;;;39.01;26.01;98497.73;1629689;86;25837;-55
2022/07/23 09:37:18;;;;;;;5.08;4.58;;;;;;;38.98;26.42;98497.32;1630268;87;27361;-57
2022/07/23 09:39:47;;;;;;;6.67;4.33;;;;;;;39.02;25.80;98495.62;1629913;86;25626;-63
2022/07/23 09:42:22;;;;;;;6.05;4.60;;;;;;;38.92;24.39;98501.45;1630295;88;25627;-60
2022/07/23 09:44:55;;;;;;;5.92;4.80;;;;;;;38.81;25.23;98502.20;1630103;87;25859;-62
2022/07/23 09:47:25;;;;;;;6.45;5.12;;;;;;;38.74;25.05;98503.48;1630101;88;25483;-56
2022/07/23 09:50:08;;;;;;;4.83;4.35;;;;;;;38.88;25.22;98501.05;1630238;87;27494;-56
2022/07/23 09:52:47;;;;;;;6.17;4.60;;;;;;;38.82;24.14;98495.19;1623586;88;25656;-55
2022/07/23 09:55:15;;;;;;;5.40;4.95;;;;;;;38.90;24.69;98495.61;1630160;88;25602;-59
2022/07/23 09:57:45;;;;;;;6.60;5.15;;;;;;;39.22;25.30;98491.80;1630031;88;25800;-56
2022/07/23 10:00:12;;;;;;;5.50;5.03;;;;;;;38.87;25.46;98486.61;1629844;87;25433;-57
2022/07/23 10:02:40;;;;;;;6.67;4.78;;;;;;;38.83;25.58;98486.72;1630194;87;27432;-57
2022/07/23 10:05:08;;;;;;;5.65;4.85;;;;;;;38.85;25.22;98482.04;1643079;86;26361;-58
2022/07/23 10:07:38;;;;;;;4.83;4.15;;;;;;;38.85;23.91;98482.04;1641713;86;26487;-58
2022/07/23 10:10:07;;;;;;;5.00;4.15;;;;;;;38.80;23.94;98477.73;1648215;86;25687;-63
2022/07/23 10:15:07;;;;;;;4.85;4.00;;;;;;;38.63;23.56;98476.35;1645891;86;26547;-59
2022/07/23 10:17:35;;;;;;;4.80;4.40;;;;;;;38.86;23.68;98477.10;1640179;86;25914;-57
2022/07/23 10:20:04;;;;;;;4.95;4.45;;;;;;;39.20;24.41;98467.84;1629927;87;25477;-57
2022/07/23 10:22:39;;;;;;;5.25;4.10;;;;;;;39.46;23.30;98465.39;1630181;88;25755;-62
2022/07/23 10:25:10;;;;;;;5.15;4.10;;;;;;;39.55;24.96;98457.97;1630375;88;25711;-58
2022/07/23 10:28:02;;;;;;;6.35;4.30;;;;;;;39.63;24.33;98452.53;1628350;87;26961;-57
2022/07/23 10:30:49;;;;;;;5.53;4.17;;;;;;;39.42;23.47;98449.88;1629791;88;27157;-55
2022/07/23 10:33:48;;;;;;;5.62;4.65;;;;;;;39.83;23.40;98457.18;1629990;87;25786;-58
2022/07/23 10:36:52;;;;;;;4.05;3.62;;;;;;;40.13;24.21;98446.61;1629865;88;27749;-61
2022/07/23 10:39:26;;;;;;;4.08;3.70;;;;;;;40.30;21.47;98448.64;1623345;87;25827;-55
2022/07/23 10:42:13;;;;;;;4.75;3.80;;;;;;;40.67;22.78;98448.13;1626045;88;28518;-55
2022/07/23 10:44:43;;;;;;;4.12;3.83;;;;;;;41.25;21.99;98455.13;1625365;88;25494;-58
2022/07/23 10:49:42;;;;;;;4.35;4.05;;;;;;;41.44;21.79;98449.39;1625985;88;25563;-59
2022/07/23 10:52:25;;;;;;;4.50;4.10;;;;;;;40.58;21.55;98451.30;1626145;88;25654;-56
2022/07/23 10:55:03;;;;;;;4.50;4.05;;;;;;;40.30;22.40;98444.98;1625959;88;27616;-55
2022/07/23 10:57:30;;;;;;;4.28;3.83;;;;;;;39.69;23.07;98439.61;1626094;88;25718;-56
2022/07/23 11:00:14;;;;;;;4.50;4.10;;;;;;;40.03;21.93;98442.44;1618178;88;25731;-60
2022/07/23 11:02:45;;;;;;;5.72;4.30;;;;;;;40.06;22.30;98434.22;1600330;89;25992;-59
2022/07/23 11:05:15;;;;;;;5.35;4.00;;;;;;;39.88;21.95;98432.67;1604140;88;25520;-62
2022/07/23 11:08:08;;;;;;;5.53;4.10;;;;;;;40.16;21.67;98426.12;1603923;88;27695;-61
2022/07/23 11:10:38;;;;;;;5.62;3.72;;;;;;;40.69;21.10;98424.63;1600061;89;26462;-63
2022/07/23 11:13:31;;;;;;;4.37;4.00;;;;;;;40.04;20.70;98411.03;1600297;89;25773;-61
2022/07/23 11:16:17;;;;;;;4.40;3.90;;;;;;;39.83;21.60;98419.89;1631264;87;26274;-61
2022/07/23 11:18:49;;;;;;;4.60;4.20;;;;;;;40.48;22.87;98411.41;1641164;87;25612;-62
2022/07/23 11:21:28;;;;;;;5.53;4.53;;;;;;;41.05;22.50;98419.59;1641008;87;27612;-61
2022/07/23 11:24:14;;;;;;;4.53;4.12;;;;;;;41.26;21.89;98405.59;1639366;87;25426;-58
2022/07/23 11:26:49;;;;;;;4.58;4.12;;;;;;;41.35;22.07;98403.03;1638309;85;25658;-59
2022/07/23 11:29:38;;;;;;;5.50;4.40;;;;;;;41.66;22.69;98408.15;1640965;86;26425;-58
2022/07/23 11:32:24;;;;;;;;;;;;;;;41.21;22.10;98404.31;1643509;87;25527;-60
2022/07/23 11:34:53;;;;;;;5.05;4.30;;;;;;;41.28;22.35;98400.09;1641004;87;27513;-61
2022/07/23 11:37:35;;;;;;;5.22;4.40;;;;;;;41.43;20.84;98398.94;1641037;87;25778;-59
2022/07/23 11:40:08;;;;;;;6.15;4.20;;;;;;;41.30;20.99;98401.79;1641911;86;25499;-61